sensor_id;sensor_type;location;lat;lon;timestamp;P1;durP1;ratioP1;P2;durP2;ratioP2
63259;SDS011;49390;51.380;0.098;2023-07-29T00:00:53;4.78;;;2.03;;
63259;SDS011;49390;51.380;0.098;2023-07-29T00:03:29;5.13;;;2.15;;
63259;SDS011;49390;51.380;0.098;2023-07-29T00:05:59;5.68;;;2.35;;
63259;SDS011;49390;51.380;0.098;2023-07-29T00:08:27;2.97;;;1.73;;
63259;SDS011;49390;51.380;0.098;2023-07-29T00:10:55;4.18;;;2.10;;
63259;SDS011;49390;51.380;0.098;2023-07-29T00:13:23;3.55;;;1.98;;
63259;SDS011;49390;51.380;0.098;2023-07-29T00:15:53;4.28;;;2.00;;
63259;SDS011;49390;51.380;0.098;2023-07-29T00:18:22;3.47;;;1.90;;
63259;SDS011;49390;51.380;0.098;2023-07-29T00:20:51;5.13;;;1.90;;
63259;SDS011;49390;51.380;0.098;2023-07-29T00:23:21;4.40;;;2.27;;
63259;SDS011;49390;51.380;0.098;2023-07-29T00:25:52;3.97;;;1.90;;
63259;SDS011;49390;51.380;0.098;2023-07-29T00:28:19;5.70;;;2.10;;
63259;SDS011;49390;51.380;0.098;2023-07-29T00:30:50;4.15;;;2.17;;
63259;SDS011;49390;51.380;0.098;2023-07-29T00:33:21;4.32;;;2.00;;
63259;SDS011;49390;51.380;0.098;2023-07-29T00:35:49;3.88;;;1.90;;
63259;SDS011;49390;51.380;0.098;2023-07-29T00:38:17;4.65;;;1.80;;
63259;SDS011;49390;51.380;0.098;2023-07-29T00:40:45;4.13;;;1.85;;
63259;SDS011;49390;51.380;0.098;2023-07-29T00:43:14;4.15;;;2.05;;
63259;SDS011;49390;51.380;0.098;2023-07-29T00:45:43;4.57;;;1.90;;
63259;SDS011;49390;51.380;0.098;2023-07-29T00:48:13;5.53;;;2.15;;
63259;SDS011;49390;51.380;0.098;2023-07-29T00:50:42;4.70;;;2.22;;
63259;SDS011;49390;51.380;0.098;2023-07-29T00:53:10;4.38;;;2.50;;
63259;SDS011;49390;51.380;0.098;2023-07-29T00:55:40;6.00;;;2.60;;
63259;SDS011;49390;51.380;0.098;2023-07-29T00:58:09;5.68;;;2.42;;
63259;SDS011;49390;51.380;0.098;2023-07-29T01:00:38;5.20;;;2.53;;
63259;SDS011;49390;51.380;0.098;2023-07-29T01:03:06;9.48;;;3.75;;
63259;SDS011;49390;51.380;0.098;2023-07-29T01:14:00;8.18;;;3.70;;
63259;SDS011;49390;51.380;0.098;2023-07-29T01:16:47;10.35;;;5.22;;
63259;SDS011;49390;51.380;0.098;2023-07-29T01:22:01;8.35;;;3.53;;
63259;SDS011;49390;51.380;0.098;2023-07-29T01:24:31;5.97;;;3.35;;
63259;SDS011;49390;51.380;0.098;2023-07-29T01:26:59;7.35;;;3.30;;
63259;SDS011;49390;51.380;0.098;2023-07-29T01:29:28;6.78;;;3.38;;
63259;SDS011;49390;51.380;0.098;2023-07-29T01:31:58;7.70;;;3.25;;
63259;SDS011;49390;51.380;0.098;2023-07-29T01:34:56;6.80;;;2.90;;
63259;SDS011;49390;51.380;0.098;2023-07-29T01:37:34;6.32;;;2.85;;
63259;SDS011;49390;51.380;0.098;2023-07-29T01:40:05;6.10;;;3.10;;
63259;SDS011;49390;51.380;0.098;2023-07-29T01:45:04;6.10;;;3.15;;
63259;SDS011;49390;51.380;0.098;2023-07-29T01:47:32;6.10;;;3.25;;
63259;SDS011;49390;51.380;0.098;2023-07-29T01:50:01;4.50;;;2.70;;
63259;SDS011;49390;51.380;0.098;2023-07-29T01:52:31;6.72;;;3.08;;
63259;SDS011;49390;51.380;0.098;2023-07-29T01:55:01;6.00;;;2.88;;
63259;SDS011;49390;51.380;0.098;2023-07-29T01:57:30;5.28;;;2.85;;
63259;SDS011;49390;51.380;0.098;2023-07-29T01:59:58;6.45;;;3.10;;
63259;SDS011;49390;51.380;0.098;2023-07-29T02:02:26;7.28;;;2.85;;
63259;SDS011;49390;51.380;0.098;2023-07-29T02:04:55;5.90;;;3.22;;
63259;SDS011;49390;51.380;0.098;2023-07-29T02:07:23;5.72;;;3.03;;
63259;SDS011;49390;51.380;0.098;2023-07-29T02:09:53;6.80;;;2.97;;
63259;SDS011;49390;51.380;0.098;2023-07-29T02:12:22;6.30;;;3.20;;
63259;SDS011;49390;51.380;0.098;2023-07-29T02:14:49;6.93;;;3.33;;
63259;SDS011;49390;51.380;0.098;2023-07-29T02:17:18;7.95;;;3.05;;
63259;SDS011;49390;51.380;0.098;2023-07-29T02:19:46;5.75;;;3.35;;
63259;SDS011;49390;51.380;0.098;2023-07-29T02:22:16;7.72;;;3.72;;
63259;SDS011;49390;51.380;0.098;2023-07-29T02:24:45;5.75;;;3.13;;
63259;SDS011;49390;51.380;0.098;2023-07-29T02:27:13;5.45;;;3.15;;
63259;SDS011;49390;51.380;0.098;2023-07-29T02:29:41;6.35;;;3.20;;
63259;SDS011;49390;51.380;0.098;2023-07-29T02:32:10;7.13;;;3.38;;
63259;SDS011;49390;51.380;0.098;2023-07-29T02:34:38;7.72;;;3.35;;
63259;SDS011;49390;51.380;0.098;2023-07-29T02:37:06;6.35;;;3.28;;
63259;SDS011;49390;51.380;0.098;2023-07-29T02:39:34;8.52;;;3.83;;
63259;SDS011;49390;51.380;0.098;2023-07-29T02:42:03;6.82;;;4.22;;
63259;SDS011;49390;51.380;0.098;2023-07-29T02:44:31;8.18;;;3.90;;
63259;SDS011;49390;51.380;0.098;2023-07-29T02:46:59;8.52;;;4.03;;
63259;SDS011;49390;51.380;0.098;2023-07-29T02:49:27;6.75;;;3.95;;
63259;SDS011;49390;51.380;0.098;2023-07-29T02:51:55;9.15;;;4.00;;
63259;SDS011;49390;51.380;0.098;2023-07-29T02:54:23;7.90;;;3.67;;
63259;SDS011;49390;51.380;0.098;2023-07-29T02:56:51;8.77;;;3.95;;
63259;SDS011;49390;51.380;0.098;2023-07-29T02:59:20;6.80;;;3.63;;
63259;SDS011;49390;51.380;0.098;2023-07-29T03:01:48;7.57;;;3.78;;
63259;SDS011;49390;51.380;0.098;2023-07-29T03:04:16;7.00;;;3.60;;
63259;SDS011;49390;51.380;0.098;2023-07-29T03:06:45;6.95;;;3.60;;
63259;SDS011;49390;51.380;0.098;2023-07-29T03:09:15;6.85;;;3.75;;
63259;SDS011;49390;51.380;0.098;2023-07-29T03:11:43;7.07;;;3.88;;
63259;SDS011;49390;51.380;0.098;2023-07-29T03:14:12;8.52;;;3.60;;
63259;SDS011;49390;51.380;0.098;2023-07-29T03:16:40;7.20;;;3.50;;
63259;SDS011;49390;51.380;0.098;2023-07-29T03:19:08;6.05;;;3.30;;
63259;SDS011;49390;51.380;0.098;2023-07-29T03:21:36;7.43;;;3.47;;
63259;SDS011;49390;51.380;0.098;2023-07-29T03:24:04;8.43;;;3.58;;
63259;SDS011;49390;51.380;0.098;2023-07-29T03:26:34;7.15;;;3.05;;
63259;SDS011;49390;51.380;0.098;2023-07-29T03:29:02;5.75;;;2.95;;
63259;SDS011;49390;51.380;0.098;2023-07-29T03:31:31;6.65;;;3.00;;
63259;SDS011;49390;51.380;0.098;2023-07-29T03:33:58;6.72;;;3.08;;
63259;SDS011;49390;51.380;0.098;2023-07-29T03:36:27;8.48;;;3.28;;
63259;SDS011;49390;51.380;0.098;2023-07-29T03:38:55;6.97;;;2.83;;
63259;SDS011;49390;51.380;0.098;2023-07-29T03:41:24;6.72;;;3.17;;
63259;SDS011;49390;51.380;0.098;2023-07-29T03:43:52;10.15;;;3.92;;
63259;SDS011;49390;51.380;0.098;2023-07-29T03:46:20;7.75;;;3.30;;
63259;SDS011;49390;51.380;0.098;2023-07-29T03:48:50;6.97;;;3.42;;
63259;SDS011;49390;51.380;0.098;2023-07-29T03:51:18;7.40;;;3.38;;
63259;SDS011;49390;51.380;0.098;2023-07-29T03:53:46;7.82;;;3.13;;
63259;SDS011;49390;51.380;0.098;2023-07-29T03:56:14;7.45;;;3.30;;
63259;SDS011;49390;51.380;0.098;2023-07-29T03:58:42;7.55;;;3.45;;
63259;SDS011;49390;51.380;0.098;2023-07-29T04:01:11;8.25;;;3.63;;
63259;SDS011;49390;51.380;0.098;2023-07-29T04:03:39;7.95;;;3.60;;
63259;SDS011;49390;51.380;0.098;2023-07-29T04:06:07;8.27;;;3.45;;
63259;SDS011;49390;51.380;0.098;2023-07-29T04:08:35;8.10;;;3.47;;
63259;SDS011;49390;51.380;0.098;2023-07-29T04:11:03;7.75;;;3.28;;
63259;SDS011;49390;51.380;0.098;2023-07-29T04:13:31;9.38;;;3.47;;
63259;SDS011;49390;51.380;0.098;2023-07-29T04:15:59;7.13;;;3.40;;
63259;SDS011;49390;51.380;0.098;2023-07-29T04:18:28;6.68;;;3.10;;
63259;SDS011;49390;51.380;0.098;2023-07-29T04:20:56;11.95;;;3.53;;
63259;SDS011;49390;51.380;0.098;2023-07-29T04:23:26;6.43;;;3.70;;
63259;SDS011;49390;51.380;0.098;2023-07-29T04:25:58;6.90;;;3.25;;
63259;SDS011;49390;51.380;0.098;2023-07-29T04:28:26;7.68;;;3.40;;
63259;SDS011;49390;51.380;0.098;2023-07-29T04:30:54;7.40;;;3.88;;
63259;SDS011;49390;51.380;0.098;2023-07-29T04:33:24;9.45;;;3.53;;
63259;SDS011;49390;51.380;0.098;2023-07-29T04:35:52;8.00;;;3.10;;
63259;SDS011;49390;51.380;0.098;2023-07-29T04:38:20;6.82;;;3.40;;
63259;SDS011;49390;51.380;0.098;2023-07-29T04:40:48;9.85;;;3.50;;
63259;SDS011;49390;51.380;0.098;2023-07-29T04:43:17;7.25;;;3.33;;
63259;SDS011;49390;51.380;0.098;2023-07-29T04:45:45;6.15;;;3.08;;
63259;SDS011;49390;51.380;0.098;2023-07-29T04:48:12;10.10;;;3.65;;
63259;SDS011;49390;51.380;0.098;2023-07-29T04:50:41;9.27;;;3.70;;
63259;SDS011;49390;51.380;0.098;2023-07-29T04:53:08;7.13;;;3.42;;
63259;SDS011;49390;51.380;0.098;2023-07-29T04:55:37;7.78;;;3.22;;
63259;SDS011;49390;51.380;0.098;2023-07-29T04:58:05;7.75;;;3.42;;
63259;SDS011;49390;51.380;0.098;2023-07-29T05:00:33;11.30;;;3.65;;
63259;SDS011;49390;51.380;0.098;2023-07-29T05:03:00;7.35;;;3.35;;
63259;SDS011;49390;51.380;0.098;2023-07-29T05:05:29;7.03;;;3.35;;
63259;SDS011;49390;51.380;0.098;2023-07-29T05:07:58;7.63;;;3.30;;
63259;SDS011;49390;51.380;0.098;2023-07-29T05:10:26;7.47;;;4.07;;
63259;SDS011;49390;51.380;0.098;2023-07-29T05:12:57;7.07;;;3.33;;
63259;SDS011;49390;51.380;0.098;2023-07-29T05:15:25;7.00;;;3.45;;
63259;SDS011;49390;51.380;0.098;2023-07-29T05:17:53;6.68;;;3.50;;
63259;SDS011;49390;51.380;0.098;2023-07-29T05:20:21;6.38;;;3.13;;
63259;SDS011;49390;51.380;0.098;2023-07-29T05:22:49;10.15;;;3.60;;
63259;SDS011;49390;51.380;0.098;2023-07-29T05:25:17;10.15;;;3.97;;
63259;SDS011;49390;51.380;0.098;2023-07-29T05:27:45;10.73;;;3.45;;
63259;SDS011;49390;51.380;0.098;2023-07-29T05:30:13;7.78;;;3.72;;
63259;SDS011;49390;51.380;0.098;2023-07-29T05:32:41;8.93;;;3.85;;
63259;SDS011;49390;51.380;0.098;2023-07-29T05:35:09;6.78;;;3.20;;
63259;SDS011;49390;51.380;0.098;2023-07-29T05:37:38;8.43;;;4.38;;
63259;SDS011;49390;51.380;0.098;2023-07-29T05:40:09;8.85;;;3.63;;
63259;SDS011;49390;51.380;0.098;2023-07-29T05:42:39;9.18;;;3.38;;
63259;SDS011;49390;51.380;0.098;2023-07-29T05:45:07;8.70;;;3.65;;
63259;SDS011;49390;51.380;0.098;2023-07-29T05:47:35;8.35;;;4.45;;
63259;SDS011;49390;51.380;0.098;2023-07-29T05:50:06;8.07;;;3.53;;
63259;SDS011;49390;51.380;0.098;2023-07-29T05:52:34;9.38;;;3.50;;
63259;SDS011;49390;51.380;0.098;2023-07-29T05:55:02;10.18;;;3.25;;
63259;SDS011;49390;51.380;0.098;2023-07-29T05:57:31;8.82;;;4.00;;
63259;SDS011;49390;51.380;0.098;2023-07-29T05:59:59;7.35;;;3.65;;
63259;SDS011;49390;51.380;0.098;2023-07-29T06:02:28;6.75;;;3.70;;
63259;SDS011;49390;51.380;0.098;2023-07-29T06:04:57;6.80;;;3.38;;
63259;SDS011;49390;51.380;0.098;2023-07-29T06:07:26;8.77;;;3.60;;
63259;SDS011;49390;51.380;0.098;2023-07-29T06:09:57;7.18;;;3.80;;
63259;SDS011;49390;51.380;0.098;2023-07-29T06:12:25;8.80;;;3.15;;
63259;SDS011;49390;51.380;0.098;2023-07-29T06:14:54;9.45;;;3.42;;
63259;SDS011;49390;51.380;0.098;2023-07-29T06:17:21;9.82;;;3.97;;
63259;SDS011;49390;51.380;0.098;2023-07-29T06:19:50;6.82;;;3.03;;
63259;SDS011;49390;51.380;0.098;2023-07-29T06:25:11;7.47;;;3.70;;
63259;SDS011;49390;51.380;0.098;2023-07-29T06:27:39;8.38;;;3.42;;
63259;SDS011;49390;51.380;0.098;2023-07-29T06:30:07;7.72;;;3.17;;
63259;SDS011;49390;51.380;0.098;2023-07-29T06:32:37;6.80;;;3.10;;
63259;SDS011;49390;51.380;0.098;2023-07-29T06:35:06;6.43;;;3.20;;
63259;SDS011;49390;51.380;0.098;2023-07-29T06:37:34;6.63;;;3.30;;
63259;SDS011;49390;51.380;0.098;2023-07-29T06:40:02;5.63;;;3.10;;
63259;SDS011;49390;51.380;0.098;2023-07-29T06:42:30;5.70;;;3.00;;
63259;SDS011;49390;51.380;0.098;2023-07-29T06:44:59;6.28;;;2.90;;
63259;SDS011;49390;51.380;0.098;2023-07-29T06:47:26;7.15;;;3.00;;
63259;SDS011;49390;51.380;0.098;2023-07-29T06:49:55;6.85;;;2.80;;
63259;SDS011;49390;51.380;0.098;2023-07-29T06:52:23;6.97;;;2.75;;
63259;SDS011;49390;51.380;0.098;2023-07-29T06:54:51;4.75;;;2.60;;
63259;SDS011;49390;51.380;0.098;2023-07-29T06:57:19;5.50;;;2.60;;
63259;SDS011;49390;51.380;0.098;2023-07-29T06:59:47;4.55;;;2.47;;
63259;SDS011;49390;51.380;0.098;2023-07-29T07:02:15;4.53;;;2.22;;
63259;SDS011;49390;51.380;0.098;2023-07-29T07:04:43;5.80;;;2.65;;
63259;SDS011;49390;51.380;0.098;2023-07-29T07:07:15;5.25;;;2.50;;
63259;SDS011;49390;51.380;0.098;2023-07-29T07:09:44;5.40;;;2.80;;
63259;SDS011;49390;51.380;0.098;2023-07-29T07:12:11;6.60;;;2.40;;
63259;SDS011;49390;51.380;0.098;2023-07-29T07:14:40;5.20;;;2.83;;
63259;SDS011;49390;51.380;0.098;2023-07-29T07:17:08;6.80;;;2.45;;
63259;SDS011;49390;51.380;0.098;2023-07-29T07:19:39;4.78;;;2.42;;
63259;SDS011;49390;51.380;0.098;2023-07-29T07:22:07;5.22;;;2.40;;
63259;SDS011;49390;51.380;0.098;2023-07-29T07:24:36;6.40;;;2.63;;
63259;SDS011;49390;51.380;0.098;2023-07-29T07:27:03;4.35;;;2.40;;
63259;SDS011;49390;51.380;0.098;2023-07-29T07:29:32;4.20;;;2.40;;
63259;SDS011;49390;51.380;0.098;2023-07-29T07:32:00;5.55;;;2.40;;
63259;SDS011;49390;51.380;0.098;2023-07-29T07:34:28;4.72;;;2.40;;
63259;SDS011;49390;51.380;0.098;2023-07-29T07:36:56;4.18;;;2.47;;
63259;SDS011;49390;51.380;0.098;2023-07-29T07:39:24;5.65;;;2.50;;
63259;SDS011;49390;51.380;0.098;2023-07-29T07:41:51;4.53;;;2.50;;
63259;SDS011;49390;51.380;0.098;2023-07-29T07:44:20;5.43;;;2.30;;
63259;SDS011;49390;51.380;0.098;2023-07-29T07:46:48;6.45;;;2.63;;
63259;SDS011;49390;51.380;0.098;2023-07-29T07:49:16;7.63;;;2.67;;
63259;SDS011;49390;51.380;0.098;2023-07-29T07:51:44;5.82;;;2.50;;
63259;SDS011;49390;51.380;0.098;2023-07-29T07:54:12;4.88;;;2.55;;
63259;SDS011;49390;51.380;0.098;2023-07-29T07:56:41;4.78;;;2.58;;
63259;SDS011;49390;51.380;0.098;2023-07-29T07:59:10;7.03;;;3.00;;
63259;SDS011;49390;51.380;0.098;2023-07-29T08:01:40;4.40;;;2.63;;
63259;SDS011;49390;51.380;0.098;2023-07-29T08:04:11;5.15;;;2.70;;
63259;SDS011;49390;51.380;0.098;2023-07-29T08:06:39;6.28;;;2.97;;
63259;SDS011;49390;51.380;0.098;2023-07-29T08:09:07;6.22;;;2.80;;
63259;SDS011;49390;51.380;0.098;2023-07-29T08:11:35;6.85;;;2.60;;
63259;SDS011;49390;51.380;0.098;2023-07-29T08:14:03;5.63;;;2.40;;
63259;SDS011;49390;51.380;0.098;2023-07-29T08:16:31;5.43;;;3.00;;
63259;SDS011;49390;51.380;0.098;2023-07-29T08:19:02;7.13;;;2.58;;
63259;SDS011;49390;51.380;0.098;2023-07-29T08:21:32;5.22;;;2.72;;
63259;SDS011;49390;51.380;0.098;2023-07-29T08:24:00;4.97;;;2.58;;
63259;SDS011;49390;51.380;0.098;2023-07-29T08:26:28;6.70;;;2.70;;
63259;SDS011;49390;51.380;0.098;2023-07-29T08:28:56;7.30;;;3.20;;
63259;SDS011;49390;51.380;0.098;2023-07-29T08:31:24;7.35;;;3.50;;
63259;SDS011;49390;51.380;0.098;2023-07-29T08:33:52;6.85;;;3.45;;
63259;SDS011;49390;51.380;0.098;2023-07-29T08:36:20;6.55;;;3.08;;
63259;SDS011;49390;51.380;0.098;2023-07-29T08:38:48;5.72;;;2.78;;
63259;SDS011;49390;51.380;0.098;2023-07-29T08:41:19;5.97;;;2.78;;
63259;SDS011;49390;51.380;0.098;2023-07-29T08:43:54;7.55;;;3.53;;
63259;SDS011;49390;51.380;0.098;2023-07-29T08:46:42;7.03;;;2.72;;
63259;SDS011;49390;51.380;0.098;2023-07-29T08:49:11;6.78;;;2.60;;
63259;SDS011;49390;51.380;0.098;2023-07-29T08:51:43;6.43;;;2.67;;
63259;SDS011;49390;51.380;0.098;2023-07-29T08:54:13;7.68;;;2.60;;
63259;SDS011;49390;51.380;0.098;2023-07-29T08:56:42;6.20;;;2.95;;
63259;SDS011;49390;51.380;0.098;2023-07-29T08:59:11;6.88;;;2.58;;
63259;SDS011;49390;51.380;0.098;2023-07-29T09:01:41;7.45;;;3.35;;
63259;SDS011;49390;51.380;0.098;2023-07-29T09:04:09;6.13;;;2.40;;
63259;SDS011;49390;51.380;0.098;2023-07-29T09:06:37;5.90;;;2.70;;
63259;SDS011;49390;51.380;0.098;2023-07-29T09:09:07;29.10;;;6.35;;
63259;SDS011;49390;51.380;0.098;2023-07-29T09:11:36;23.33;;;5.22;;
63259;SDS011;49390;51.380;0.098;2023-07-29T09:14:04;58.70;;;11.57;;
63259;SDS011;49390;51.380;0.098;2023-07-29T09:16:32;10.60;;;3.58;;
63259;SDS011;49390;51.380;0.098;2023-07-29T09:19:04;6.82;;;2.90;;
63259;SDS011;49390;51.380;0.098;2023-07-29T09:21:32;8.10;;;2.63;;
63259;SDS011;49390;51.380;0.098;2023-07-29T09:24:03;6.18;;;2.47;;
63259;SDS011;49390;51.380;0.098;2023-07-29T09:26:32;19.55;;;4.15;;
63259;SDS011;49390;51.380;0.098;2023-07-29T09:29:01;7.20;;;2.58;;
63259;SDS011;49390;51.380;0.098;2023-07-29T09:31:29;5.95;;;2.67;;
63259;SDS011;49390;51.380;0.098;2023-07-29T09:33:58;5.57;;;2.70;;
63259;SDS011;49390;51.380;0.098;2023-07-29T09:36:29;4.80;;;2.60;;
63259;SDS011;49390;51.380;0.098;2023-07-29T09:38:59;4.90;;;2.25;;
63259;SDS011;49390;51.380;0.098;2023-07-29T09:41:30;4.93;;;2.50;;
63259;SDS011;49390;51.380;0.098;2023-07-29T09:44:04;6.77;;;2.80;;
63259;SDS011;49390;51.380;0.098;2023-07-29T09:46:36;5.57;;;2.67;;
63259;SDS011;49390;51.380;0.098;2023-07-29T09:49:07;5.65;;;2.70;;
63259;SDS011;49390;51.380;0.098;2023-07-29T09:51:38;7.97;;;2.83;;
63259;SDS011;49390;51.380;0.098;2023-07-29T09:54:08;7.13;;;2.60;;
63259;SDS011;49390;51.380;0.098;2023-07-29T09:56:41;7.45;;;2.63;;
63259;SDS011;49390;51.380;0.098;2023-07-29T09:59:12;5.45;;;2.70;;
63259;SDS011;49390;51.380;0.098;2023-07-29T10:01:40;7.15;;;2.50;;
63259;SDS011;49390;51.380;0.098;2023-07-29T10:04:11;16.20;;;4.72;;
63259;SDS011;49390;51.380;0.098;2023-07-29T10:06:41;8.63;;;3.00;;
63259;SDS011;49390;51.380;0.098;2023-07-29T10:09:11;9.00;;;3.45;;
63259;SDS011;49390;51.380;0.098;2023-07-29T10:11:40;5.25;;;2.50;;
63259;SDS011;49390;51.380;0.098;2023-07-29T10:14:09;6.18;;;2.83;;
63259;SDS011;49390;51.380;0.098;2023-07-29T10:16:39;5.45;;;2.70;;
63259;SDS011;49390;51.380;0.098;2023-07-29T10:19:09;4.82;;;2.53;;
63259;SDS011;49390;51.380;0.098;2023-07-29T10:21:38;6.28;;;2.72;;
63259;SDS011;49390;51.380;0.098;2023-07-29T10:24:09;5.00;;;2.50;;
63259;SDS011;49390;51.380;0.098;2023-07-29T10:26:43;5.85;;;2.65;;
63259;SDS011;49390;51.380;0.098;2023-07-29T10:29:14;25.23;;;5.40;;
63259;SDS011;49390;51.380;0.098;2023-07-29T10:31:47;5.70;;;2.70;;
63259;SDS011;49390;51.380;0.098;2023-07-29T10:34:20;10.13;;;2.60;;
63259;SDS011;49390;51.380;0.098;2023-07-29T10:36:50;6.38;;;2.70;;
63259;SDS011;49390;51.380;0.098;2023-07-29T10:39:20;7.15;;;2.80;;
63259;SDS011;49390;51.380;0.098;2023-07-29T10:41:58;6.68;;;2.60;;
63259;SDS011;49390;51.380;0.098;2023-07-29T10:47:13;12.25;;;3.03;;
63259;SDS011;49390;51.380;0.098;2023-07-29T10:50:16;6.10;;;2.53;;
63259;SDS011;49390;51.380;0.098;2023-07-29T10:52:43;4.70;;;2.70;;
63259;SDS011;49390;51.380;0.098;2023-07-29T10:55:27;4.10;;;2.28;;
63259;SDS011;49390;51.380;0.098;2023-07-29T10:58:22;5.90;;;3.03;;
63259;SDS011;49390;51.380;0.098;2023-07-29T11:00:53;5.28;;;2.58;;
63259;SDS011;49390;51.380;0.098;2023-07-29T11:03:21;4.82;;;2.50;;
63259;SDS011;49390;51.380;0.098;2023-07-29T11:05:54;7.35;;;2.90;;
63259;SDS011;49390;51.380;0.098;2023-07-29T11:08:28;5.22;;;2.10;;
63259;SDS011;49390;51.380;0.098;2023-07-29T11:10:58;5.28;;;2.58;;
63259;SDS011;49390;51.380;0.098;2023-07-29T11:13:29;7.68;;;2.60;;
63259;SDS011;49390;51.380;0.098;2023-07-29T11:15:58;5.60;;;2.60;;
63259;SDS011;49390;51.380;0.098;2023-07-29T11:18:31;6.32;;;2.72;;
63259;SDS011;49390;51.380;0.098;2023-07-29T11:21:02;7.57;;;2.70;;
63259;SDS011;49390;51.380;0.098;2023-07-29T11:23:35;6.32;;;2.80;;
63259;SDS011;49390;51.380;0.098;2023-07-29T11:26:04;5.75;;;2.70;;
63259;SDS011;49390;51.380;0.098;2023-07-29T11:28:37;6.93;;;2.75;;
63259;SDS011;49390;51.380;0.098;2023-07-29T11:31:06;7.03;;;2.83;;
63259;SDS011;49390;51.380;0.098;2023-07-29T11:33:34;6.85;;;2.60;;
63259;SDS011;49390;51.380;0.098;2023-07-29T11:36:06;6.43;;;2.30;;
63259;SDS011;49390;51.380;0.098;2023-07-29T11:38:44;4.85;;;2.30;;
63259;SDS011;49390;51.380;0.098;2023-07-29T11:41:12;6.55;;;2.72;;
63259;SDS011;49390;51.380;0.098;2023-07-29T11:43:47;6.20;;;2.45;;
63259;SDS011;49390;51.380;0.098;2023-07-29T11:46:15;5.93;;;2.53;;
63259;SDS011;49390;51.380;0.098;2023-07-29T11:48:47;5.47;;;2.50;;
63259;SDS011;49390;51.380;0.098;2023-07-29T11:51:15;5.82;;;2.28;;
63259;SDS011;49390;51.380;0.098;2023-07-29T11:53:44;6.20;;;2.60;;
63259;SDS011;49390;51.380;0.098;2023-07-29T11:56:12;5.38;;;2.53;;
63259;SDS011;49390;51.380;0.098;2023-07-29T11:58:41;6.55;;;2.58;;
63259;SDS011;49390;51.380;0.098;2023-07-29T12:01:09;6.53;;;2.75;;
63259;SDS011;49390;51.380;0.098;2023-07-29T12:03:38;5.22;;;2.72;;
63259;SDS011;49390;51.380;0.098;2023-07-29T12:06:09;6.28;;;2.53;;
63259;SDS011;49390;51.380;0.098;2023-07-29T12:08:38;5.55;;;2.33;;
63259;SDS011;49390;51.380;0.098;2023-07-29T12:11:06;5.30;;;2.60;;
63259;SDS011;49390;51.380;0.098;2023-07-29T12:13:38;4.93;;;2.40;;
63259;SDS011;49390;51.380;0.098;2023-07-29T12:16:09;5.03;;;2.20;;
63259;SDS011;49390;51.380;0.098;2023-07-29T12:18:43;5.70;;;2.33;;
63259;SDS011;49390;51.380;0.098;2023-07-29T12:21:13;4.80;;;2.38;;
63259;SDS011;49390;51.380;0.098;2023-07-29T12:23:42;5.60;;;2.75;;
63259;SDS011;49390;51.380;0.098;2023-07-29T12:26:10;5.55;;;2.60;;
63259;SDS011;49390;51.380;0.098;2023-07-29T12:28:38;4.00;;;2.10;;
63259;SDS011;49390;51.380;0.098;2023-07-29T12:31:12;5.15;;;2.42;;
63259;SDS011;49390;51.380;0.098;2023-07-29T12:33:40;4.80;;;2.30;;
63259;SDS011;49390;51.380;0.098;2023-07-29T12:36:09;5.97;;;2.85;;
63259;SDS011;49390;51.380;0.098;2023-07-29T12:38:38;5.03;;;2.80;;
63259;SDS011;49390;51.380;0.098;2023-07-29T12:41:06;6.57;;;3.05;;
63259;SDS011;49390;51.380;0.098;2023-07-29T12:43:34;7.13;;;2.50;;
63259;SDS011;49390;51.380;0.098;2023-07-29T12:46:02;7.47;;;2.45;;
63259;SDS011;49390;51.380;0.098;2023-07-29T12:48:30;8.15;;;2.60;;
63259;SDS011;49390;51.380;0.098;2023-07-29T12:51:01;6.30;;;2.20;;
63259;SDS011;49390;51.380;0.098;2023-07-29T12:53:29;5.05;;;2.00;;
63259;SDS011;49390;51.380;0.098;2023-07-29T12:55:57;6.47;;;2.20;;
63259;SDS011;49390;51.380;0.098;2023-07-29T12:58:28;4.60;;;2.22;;
63259;SDS011;49390;51.380;0.098;2023-07-29T13:00:56;4.47;;;2.20;;
63259;SDS011;49390;51.380;0.098;2023-07-29T13:03:24;7.45;;;2.42;;
63259;SDS011;49390;51.380;0.098;2023-07-29T13:05:53;5.25;;;2.17;;
63259;SDS011;49390;51.380;0.098;2023-07-29T13:08:21;6.55;;;2.50;;
63259;SDS011;49390;51.380;0.098;2023-07-29T13:10:51;5.45;;;2.15;;
63259;SDS011;49390;51.380;0.098;2023-07-29T13:13:19;3.55;;;1.77;;
63259;SDS011;49390;51.380;0.098;2023-07-29T13:15:48;5.20;;;1.95;;
63259;SDS011;49390;51.380;0.098;2023-07-29T13:18:16;3.55;;;1.83;;
63259;SDS011;49390;51.380;0.098;2023-07-29T13:20:47;5.80;;;2.30;;
63259;SDS011;49390;51.380;0.098;2023-07-29T13:23:15;5.93;;;2.45;;
63259;SDS011;49390;51.380;0.098;2023-07-29T13:25:44;5.90;;;2.20;;
63259;SDS011;49390;51.380;0.098;2023-07-29T13:28:15;6.32;;;2.50;;
63259;SDS011;49390;51.380;0.098;2023-07-29T13:30:43;6.72;;;2.58;;
63259;SDS011;49390;51.380;0.098;2023-07-29T13:33:14;4.53;;;2.13;;
63259;SDS011;49390;51.380;0.098;2023-07-29T13:35:42;6.70;;;2.20;;
63259;SDS011;49390;51.380;0.098;2023-07-29T13:38:10;4.80;;;2.50;;
63259;SDS011;49390;51.380;0.098;2023-07-29T13:40:43;5.35;;;2.20;;
63259;SDS011;49390;51.380;0.098;2023-07-29T13:43:11;6.05;;;2.30;;
63259;SDS011;49390;51.380;0.098;2023-07-29T13:45:39;4.35;;;2.13;;
63259;SDS011;49390;51.380;0.098;2023-07-29T13:48:08;3.63;;;1.95;;
63259;SDS011;49390;51.380;0.098;2023-07-29T13:50:36;6.80;;;2.33;;
63259;SDS011;49390;51.380;0.098;2023-07-29T13:53:04;4.38;;;1.92;;
63259;SDS011;49390;51.380;0.098;2023-07-29T13:55:32;5.72;;;2.38;;
63259;SDS011;49390;51.380;0.098;2023-07-29T13:58:00;5.50;;;2.08;;
63259;SDS011;49390;51.380;0.098;2023-07-29T14:00:30;4.83;;;2.07;;
63259;SDS011;49390;51.380;0.098;2023-07-29T14:02:58;5.38;;;2.30;;
63259;SDS011;49390;51.380;0.098;2023-07-29T14:05:26;5.70;;;2.28;;
63259;SDS011;49390;51.380;0.098;2023-07-29T14:07:54;6.85;;;2.38;;
63259;SDS011;49390;51.380;0.098;2023-07-29T14:10:22;6.10;;;2.25;;
63259;SDS011;49390;51.380;0.098;2023-07-29T14:12:51;3.80;;;2.00;;
63259;SDS011;49390;51.380;0.098;2023-07-29T14:15:19;3.38;;;1.80;;
63259;SDS011;49390;51.380;0.098;2023-07-29T14:17:48;6.32;;;2.03;;
63259;SDS011;49390;51.380;0.098;2023-07-29T14:20:16;5.32;;;2.15;;
63259;SDS011;49390;51.380;0.098;2023-07-29T14:22:47;5.40;;;2.20;;
63259;SDS011;49390;51.380;0.098;2023-07-29T14:25:16;4.03;;;2.00;;
63259;SDS011;49390;51.380;0.098;2023-07-29T14:27:44;3.72;;;2.00;;
63259;SDS011;49390;51.380;0.098;2023-07-29T14:30:12;5.53;;;1.75;;
63259;SDS011;49390;51.380;0.098;2023-07-29T14:32:42;3.00;;;1.60;;
63259;SDS011;49390;51.380;0.098;2023-07-29T14:35:10;3.53;;;1.60;;
63259;SDS011;49390;51.380;0.098;2023-07-29T14:37:38;3.55;;;1.60;;
63259;SDS011;49390;51.380;0.098;2023-07-29T14:40:07;3.20;;;1.60;;
63259;SDS011;49390;51.380;0.098;2023-07-29T14:42:35;2.75;;;1.63;;
63259;SDS011;49390;51.380;0.098;2023-07-29T14:45:03;3.30;;;1.42;;
63259;SDS011;49390;51.380;0.098;2023-07-29T14:47:31;4.70;;;1.63;;
63259;SDS011;49390;51.380;0.098;2023-07-29T14:50:02;2.53;;;1.60;;
63259;SDS011;49390;51.380;0.098;2023-07-29T14:52:30;2.13;;;1.40;;
63259;SDS011;49390;51.380;0.098;2023-07-29T14:54:58;2.75;;;1.42;;
63259;SDS011;49390;51.380;0.098;2023-07-29T14:57:26;3.10;;;1.52;;
63259;SDS011;49390;51.380;0.098;2023-07-29T14:59:54;2.88;;;1.50;;
63259;SDS011;49390;51.380;0.098;2023-07-29T15:02:22;2.35;;;1.35;;
63259;SDS011;49390;51.380;0.098;2023-07-29T15:04:51;2.20;;;1.40;;
63259;SDS011;49390;51.380;0.098;2023-07-29T15:07:19;3.92;;;1.60;;
63259;SDS011;49390;51.380;0.098;2023-07-29T15:09:47;3.85;;;1.60;;
63259;SDS011;49390;51.380;0.098;2023-07-29T15:12:15;3.60;;;1.50;;
63259;SDS011;49390;51.380;0.098;2023-07-29T15:14:43;3.63;;;1.83;;
63259;SDS011;49390;51.380;0.098;2023-07-29T15:17:11;4.32;;;1.67;;
63259;SDS011;49390;51.380;0.098;2023-07-29T15:19:40;6.57;;;2.00;;